createdAt,value
2023-10-19T00:00:40.268Z,3.50
2023-10-19T00:01:40.360Z,3.90
2023-10-19T00:02:40.305Z,3.60
2023-10-19T00:03:40.298Z,3.90
2023-10-19T00:04:40.248Z,3.30
2023-10-19T00:05:40.212Z,3.50
2023-10-19T00:06:40.232Z,3.70
2023-10-19T00:07:40.208Z,3.70
2023-10-19T00:08:40.203Z,3.90
2023-10-19T00:09:40.148Z,3.50
2023-10-19T00:10:40.221Z,3.90
2023-10-19T00:11:40.130Z,4.40
2023-10-19T00:12:40.129Z,3.90
2023-10-19T00:13:40.285Z,3.80
2023-10-19T00:14:40.181Z,4.50
2023-10-19T00:15:40.081Z,4.00
2023-10-19T00:16:40.156Z,3.70
2023-10-19T00:17:40.097Z,4.20
2023-10-19T00:18:40.084Z,4.20
2023-10-19T00:19:40.074Z,4.00
2023-10-19T00:20:40.075Z,4.10
2023-10-19T00:21:40.082Z,4.00
2023-10-19T00:22:40.036Z,3.70
2023-10-19T00:23:40.059Z,3.60
2023-10-19T00:24:39.978Z,3.70
2023-10-19T00:25:40.055Z,3.60
2023-10-19T00:26:39.956Z,4.30
2023-10-19T00:27:39.963Z,4.00
2023-10-19T00:28:39.991Z,3.70
2023-10-19T00:29:39.919Z,3.60
2023-10-19T00:30:39.944Z,4.20
2023-10-19T00:31:40.014Z,3.90
2023-10-19T00:32:40.108Z,4.50
2023-10-19T00:33:39.932Z,4.20
2023-10-19T00:34:39.981Z,4.40
2023-10-19T00:35:39.863Z,4.40
2023-10-19T00:36:39.858Z,4.30
2023-10-19T00:37:39.901Z,4.90
2023-10-19T00:38:39.840Z,4.30
2023-10-19T00:39:39.829Z,4.20
2023-10-19T00:40:39.904Z,4.80
2023-10-19T00:41:39.816Z,4.60
2023-10-19T00:42:39.808Z,4.50
2023-10-19T00:43:39.850Z,4.00
2023-10-19T00:44:39.763Z,4.30
2023-10-19T00:45:39.785Z,3.80
2023-10-19T00:46:39.804Z,4.70
2023-10-19T00:47:39.745Z,4.50
2023-10-19T00:48:39.794Z,4.30
2023-10-19T00:49:39.752Z,4.00
2023-10-19T00:50:39.704Z,4.10
2023-10-19T00:51:39.686Z,4.40
2023-10-19T00:52:39.739Z,4.20
2023-10-19T00:53:39.645Z,4.80
2023-10-19T00:54:39.690Z,4.50
2023-10-19T00:55:39.692Z,4.30
2023-10-19T00:56:39.675Z,4.50
2023-10-19T00:57:39.617Z,4.20
2023-10-19T00:58:39.630Z,4.50
2023-10-19T00:59:39.604Z,4.70
2023-10-19T01:00:39.621Z,4.90
2023-10-19T01:01:39.688Z,4.60
2023-10-19T01:02:39.643Z,4.50
2023-10-19T01:03:39.696Z,4.60
2023-10-19T01:04:39.610Z,4.90
2023-10-19T01:05:39.554Z,4.90
2023-10-19T01:06:39.513Z,4.30
2023-10-19T01:07:39.600Z,4.90
2023-10-19T01:08:39.495Z,4.70
2023-10-19T01:09:39.478Z,4.90
2023-10-19T01:10:39.533Z,5.00
2023-10-19T01:11:39.556Z,5.20
2023-10-19T01:12:39.425Z,5.10
2023-10-19T01:13:39.571Z,4.90
2023-10-19T01:14:39.411Z,5.10
2023-10-19T01:15:39.433Z,5.00
2023-10-19T01:16:39.537Z,4.70
2023-10-19T01:17:39.502Z,5.30
2023-10-19T01:18:39.352Z,5.50
2023-10-19T01:19:39.355Z,4.40
2023-10-19T01:20:39.370Z,5.00
2023-10-19T01:21:39.336Z,5.00
2023-10-19T01:22:39.397Z,4.30
2023-10-19T01:23:39.317Z,5.10
2023-10-19T01:24:39.289Z,5.10
2023-10-19T01:25:39.326Z,5.20
2023-10-19T01:26:39.282Z,5.20
2023-10-19T01:27:39.261Z,5.10
2023-10-19T01:28:39.269Z,5.30
2023-10-19T01:29:39.267Z,5.10
2023-10-19T01:30:39.298Z,5.20
2023-10-19T01:31:39.385Z,5.10
2023-10-19T01:32:39.245Z,5.10
2023-10-19T01:33:39.190Z,5.20
2023-10-19T01:34:39.267Z,5.10
2023-10-19T01:35:39.192Z,4.70
2023-10-19T01:36:39.189Z,5.60
2023-10-19T01:37:39.383Z,5.30
2023-10-19T01:38:39.130Z,5.30
2023-10-19T01:39:39.182Z,5.40
2023-10-19T01:40:39.161Z,5.00
2023-10-19T01:41:39.101Z,5.40
2023-10-19T01:42:39.099Z,5.30
2023-10-19T01:43:39.245Z,5.30
2023-10-19T01:44:39.089Z,4.70
2023-10-19T01:45:39.100Z,5.20
2023-10-19T01:46:39.103Z,5.30
2023-10-19T01:47:39.114Z,5.00
2023-10-19T01:48:39.052Z,5.40
2023-10-19T01:49:39.082Z,5.60
2023-10-19T01:50:39.018Z,5.40
2023-10-19T01:51:39.025Z,4.90
2023-10-19T01:52:39.071Z,5.50
2023-10-19T01:53:39.000Z,5.20
2023-10-19T01:54:38.986Z,5.20
2023-10-19T01:55:39.198Z,5.60
2023-10-19T01:56:38.985Z,5.10
2023-10-19T01:57:38.999Z,5.40
2023-10-19T01:58:38.939Z,4.90
2023-10-19T01:59:38.923Z,5.40
2023-10-19T02:00:38.924Z,5.60
2023-10-19T02:01:39.306Z,5.40
2023-10-19T02:02:38.941Z,6.20
2023-10-19T02:03:38.991Z,5.60
2023-10-19T02:04:38.909Z,5.40
2023-10-19T02:05:38.830Z,5.50
2023-10-19T02:06:38.863Z,5.40
2023-10-19T02:07:38.826Z,5.70
2023-10-19T02:08:38.811Z,5.70
2023-10-19T02:09:38.807Z,6.10
2023-10-19T02:10:38.790Z,5.50
2023-10-19T02:11:38.761Z,5.60
2023-10-19T02:12:38.759Z,5.70
2023-10-19T02:13:38.779Z,5.60
2023-10-19T02:14:38.777Z,6.60
2023-10-19T02:15:38.718Z,6.30
2023-10-19T02:16:38.752Z,6.10
2023-10-19T02:17:38.786Z,5.10
2023-10-19T02:18:38.680Z,5.70
2023-10-19T02:19:38.705Z,5.60
2023-10-19T02:20:41.348Z,5.70
2023-10-19T02:21:38.643Z,5.90
2023-10-19T02:22:38.689Z,5.80
2023-10-19T02:23:38.774Z,5.50
2023-10-19T02:24:38.652Z,6.00
2023-10-19T02:25:38.612Z,5.90
2023-10-19T02:26:38.648Z,5.90
2023-10-19T02:27:38.599Z,6.30
2023-10-19T02:28:38.692Z,5.60
2023-10-19T02:29:38.581Z,5.90
2023-10-19T02:30:38.609Z,6.40
2023-10-19T02:31:38.586Z,6.70
2023-10-19T02:32:38.600Z,6.20
2023-10-19T02:33:38.570Z,5.90
2023-10-19T02:34:38.595Z,6.10
2023-10-19T02:35:38.607Z,6.40
2023-10-19T02:36:38.500Z,5.80
2023-10-19T02:37:38.555Z,7.00
2023-10-19T02:38:38.454Z,7.10
2023-10-19T02:39:38.475Z,6.20
2023-10-19T02:40:38.469Z,5.90
2023-10-19T02:41:38.436Z,6.20
2023-10-19T02:42:38.433Z,5.20
2023-10-19T02:43:38.448Z,6.80
2023-10-19T02:44:38.438Z,6.00
2023-10-19T02:45:38.518Z,6.40
2023-10-19T02:46:38.455Z,6.70
2023-10-19T02:47:38.410Z,6.30
2023-10-19T02:48:38.354Z,6.50
2023-10-19T02:49:38.384Z,6.40
2023-10-19T02:50:38.340Z,6.50
2023-10-19T02:51:38.317Z,6.60
2023-10-19T02:52:38.354Z,6.10
2023-10-19T02:53:38.303Z,6.30
2023-10-19T02:54:38.281Z,6.40
2023-10-19T02:55:38.361Z,6.70
2023-10-19T02:56:38.253Z,6.60
2023-10-19T02:57:38.275Z,7.00
2023-10-19T02:58:38.311Z,7.00
2023-10-19T02:59:38.233Z,6.70
2023-10-19T03:00:38.316Z,6.20
2023-10-19T03:01:38.262Z,6.20
2023-10-19T03:02:38.300Z,6.70
2023-10-19T03:03:38.189Z,6.50
2023-10-19T03:04:38.269Z,7.10
2023-10-19T03:05:38.175Z,7.10
2023-10-19T03:06:38.210Z,6.90
2023-10-19T03:07:38.164Z,6.50
2023-10-19T03:08:38.141Z,7.10
2023-10-19T03:09:38.367Z,6.90
2023-10-19T03:10:38.140Z,7.30
2023-10-19T03:11:38.107Z,7.40
2023-10-19T03:12:38.118Z,7.00
2023-10-19T03:13:38.097Z,7.00
2023-10-19T03:14:38.095Z,6.10
2023-10-19T03:15:38.061Z,7.10
2023-10-19T03:16:38.221Z,6.90
2023-10-19T03:17:38.746Z,6.90
2023-10-19T03:18:38.062Z,6.80
2023-10-19T03:19:38.061Z,8.00
2023-10-19T03:20:37.990Z,6.70
2023-10-19T03:21:37.997Z,6.20
2023-10-19T03:22:37.999Z,7.30
2023-10-19T03:23:37.982Z,6.70
2023-10-19T03:24:38.268Z,6.80
2023-10-19T03:25:37.961Z,7.10
2023-10-19T03:26:38.002Z,7.10
2023-10-19T03:27:37.903Z,6.10
2023-10-19T03:28:37.906Z,6.60
2023-10-19T03:29:37.891Z,6.70
2023-10-19T03:30:37.920Z,6.90
2023-10-19T03:31:37.876Z,6.80
2023-10-19T03:32:37.878Z,7.00
2023-10-19T03:33:37.919Z,8.30
2023-10-19T03:34:40.082Z,7.20
2023-10-19T03:35:37.874Z,6.70
2023-10-19T03:36:37.792Z,6.80
2023-10-19T03:37:37.816Z,7.10
2023-10-19T03:38:37.768Z,7.40
2023-10-19T03:39:37.758Z,7.50
2023-10-19T03:40:37.813Z,6.90
2023-10-19T03:41:37.836Z,7.50
2023-10-19T03:42:37.749Z,7.00
2023-10-19T03:43:37.758Z,7.40
2023-10-19T03:44:37.722Z,7.20
2023-10-19T03:45:37.738Z,7.60
2023-10-19T03:46:37.815Z,6.90
2023-10-19T03:47:37.789Z,7.80
2023-10-19T03:48:37.669Z,7.50
2023-10-19T03:49:37.787Z,7.30
2023-10-19T03:50:37.630Z,6.80
2023-10-19T03:51:37.641Z,7.90
2023-10-19T03:52:37.639Z,7.70
2023-10-19T03:53:37.590Z,7.90
2023-10-19T03:54:37.584Z,7.30
2023-10-19T03:55:37.619Z,7.60
2023-10-19T03:56:37.560Z,7.40
2023-10-19T03:57:37.561Z,7.20
2023-10-19T03:58:37.604Z,7.80
2023-10-19T03:59:37.543Z,7.00
2023-10-19T04:00:37.512Z,8.30
2023-10-19T04:01:37.586Z,7.50
2023-10-19T04:02:37.686Z,8.00
2023-10-19T04:03:37.505Z,8.20
2023-10-19T04:04:37.724Z,8.00
2023-10-19T04:05:37.485Z,8.50
2023-10-19T04:06:37.454Z,8.00
2023-10-19T04:07:37.492Z,7.80
2023-10-19T04:08:37.428Z,8.50
2023-10-19T04:09:37.482Z,8.00
2023-10-19T04:10:37.478Z,8.60
2023-10-19T04:11:37.405Z,8.60
2023-10-19T04:12:37.398Z,8.40
2023-10-19T04:13:37.509Z,8.60
2023-10-19T04:14:37.367Z,9.40
2023-10-19T04:15:37.362Z,9.00
2023-10-19T04:16:37.451Z,9.20
2023-10-19T04:17:37.353Z,8.30
2023-10-19T04:18:37.374Z,9.60
2023-10-19T04:19:37.371Z,9.20
2023-10-19T04:20:37.298Z,9.20
2023-10-19T04:21:37.388Z,8.90
2023-10-19T04:22:37.383Z,9.00
2023-10-19T04:23:37.488Z,8.60
2023-10-19T04:24:37.252Z,9.10
2023-10-19T04:25:37.277Z,8.90
2023-10-19T04:26:37.295Z,7.80
2023-10-19T04:27:37.282Z,9.40
2023-10-19T04:28:37.302Z,9.10
2023-10-19T04:29:37.197Z,8.50
2023-10-19T04:30:37.255Z,9.50
2023-10-19T04:31:37.233Z,8.90
2023-10-19T04:32:37.338Z,8.50
2023-10-19T04:33:37.750Z,9.00
2023-10-19T04:34:37.182Z,9.50
2023-10-19T04:35:37.313Z,9.60
2023-10-19T04:36:37.294Z,10.30
2023-10-19T04:37:37.149Z,9.60
2023-10-19T04:38:37.287Z,9.90
2023-10-19T04:39:37.143Z,10.60
2023-10-19T04:40:37.419Z,9.50
2023-10-19T04:41:37.667Z,9.40
2023-10-19T04:42:37.117Z,10.30
2023-10-19T04:43:37.153Z,9.80
2023-10-19T04:44:37.039Z,9.40
2023-10-19T04:45:37.207Z,9.60
2023-10-19T04:46:37.168Z,10.20
2023-10-19T04:47:37.522Z,10.00
2023-10-19T04:48:37.016Z,10.00
2023-10-19T04:49:37.112Z,9.30
2023-10-19T04:50:36.997Z,9.80
2023-10-19T04:51:37.261Z,10.50
2023-10-19T04:52:37.010Z,9.80
2023-10-19T04:53:36.999Z,10.90
2023-10-19T04:54:37.057Z,10.70
2023-10-19T04:55:37.015Z,9.80
2023-10-19T04:56:36.905Z,10.10
2023-10-19T04:57:36.897Z,10.20
2023-10-19T04:58:36.893Z,11.40
2023-10-19T04:59:36.879Z,11.00
2023-10-19T05:00:36.932Z,10.60
2023-10-19T05:01:36.969Z,9.90
2023-10-19T05:02:36.964Z,11.30
2023-10-19T05:03:36.960Z,10.00
2023-10-19T05:04:36.889Z,10.50
2023-10-19T05:05:38.018Z,11.40
2023-10-19T05:06:36.845Z,9.80
2023-10-19T05:07:37.099Z,10.60
2023-10-19T05:08:36.877Z,12.10
2023-10-19T05:09:36.832Z,10.70
2023-10-19T05:10:36.845Z,11.40
2023-10-19T05:11:36.857Z,11.60
2023-10-19T05:12:36.749Z,11.60
2023-10-19T05:13:36.852Z,10.70
2023-10-19T05:14:36.712Z,11.00
2023-10-19T05:15:36.700Z,10.90
2023-10-19T05:16:36.758Z,12.00
2023-10-19T05:17:36.800Z,11.20
2023-10-19T05:18:36.701Z,12.00
2023-10-19T05:19:38.421Z,11.60
2023-10-19T05:20:36.630Z,11.30
2023-10-19T05:21:36.677Z,11.30
2023-10-19T05:22:36.653Z,12.70
2023-10-19T05:23:36.608Z,10.90
2023-10-19T05:24:36.592Z,11.30
2023-10-19T05:25:36.664Z,12.20
2023-10-19T05:26:36.553Z,11.40
2023-10-19T05:27:36.539Z,12.80
2023-10-19T05:28:36.602Z,11.60
2023-10-19T05:29:36.546Z,11.40
2023-10-19T05:30:36.504Z,11.10
2023-10-19T05:31:36.539Z,12.20
2023-10-19T05:32:36.621Z,13.00
2023-10-19T05:33:36.468Z,11.50
2023-10-19T05:34:36.486Z,11.10
2023-10-19T05:35:36.816Z,12.50
2023-10-19T05:36:36.470Z,13.00
2023-10-19T05:37:36.516Z,12.20
2023-10-19T05:38:36.432Z,12.90
2023-10-19T05:39:36.439Z,11.90
2023-10-19T05:40:36.457Z,12.20
2023-10-19T05:41:36.430Z,12.00
2023-10-19T05:42:36.380Z,13.30
2023-10-19T05:43:36.408Z,11.70
2023-10-19T05:44:36.377Z,11.40
2023-10-19T05:45:37.287Z,12.90
2023-10-19T05:46:36.447Z,11.50
2023-10-19T05:47:36.417Z,12.20
2023-10-19T05:48:36.351Z,12.30
2023-10-19T05:49:36.356Z,12.40
2023-10-19T05:50:36.273Z,12.00
2023-10-19T05:51:36.288Z,11.30
2023-10-19T05:52:36.314Z,13.50
2023-10-19T05:53:36.245Z,13.20
2023-10-19T05:54:36.282Z,12.80
2023-10-19T05:55:36.251Z,12.70
2023-10-19T05:56:36.224Z,12.30
2023-10-19T05:57:36.198Z,12.80
2023-10-19T05:58:39.033Z,12.70
2023-10-19T05:59:36.198Z,13.40
2023-10-19T06:00:36.202Z,14.50
2023-10-19T06:01:36.249Z,12.00
2023-10-19T06:02:36.353Z,14.10
2023-10-19T06:03:36.278Z,13.40
2023-10-19T06:04:36.304Z,12.10
2023-10-19T06:05:36.106Z,12.70
2023-10-19T06:06:36.124Z,14.00
2023-10-19T06:07:36.126Z,12.40
2023-10-19T06:08:36.125Z,13.60
2023-10-19T06:09:36.069Z,14.00
2023-10-19T06:10:36.164Z,13.20
2023-10-19T06:11:36.032Z,14.60
2023-10-19T06:12:36.038Z,14.30
2023-10-19T06:13:36.085Z,14.00
2023-10-19T06:14:36.269Z,14.50
2023-10-19T06:15:36.053Z,13.90
2023-10-19T06:16:36.118Z,13.40
2023-10-19T06:17:36.134Z,13.20
2023-10-19T06:18:36.089Z,14.50
2023-10-19T06:19:35.987Z,15.00
2023-10-19T06:20:35.955Z,13.40
2023-10-19T06:21:35.928Z,14.80
2023-10-19T06:22:36.024Z,13.70
2023-10-19T06:23:35.927Z,13.40
2023-10-19T06:24:35.892Z,13.20
2023-10-19T06:25:36.038Z,14.00
2023-10-19T06:26:35.863Z,12.90
2023-10-19T06:27:35.864Z,14.70
2023-10-19T06:28:35.864Z,13.70
2023-10-19T06:29:35.838Z,13.40
2023-10-19T06:30:35.908Z,12.30
2023-10-19T06:31:36.016Z,12.30
2023-10-19T06:32:37.103Z,14.10
2023-10-19T06:33:36.023Z,12.70
2023-10-19T06:34:35.820Z,13.30
2023-10-19T06:35:35.813Z,13.70
2023-10-19T06:36:35.776Z,13.50
2023-10-19T06:37:35.848Z,13.50
2023-10-19T06:38:35.725Z,12.90
2023-10-19T06:39:35.706Z,13.50
2023-10-19T06:40:35.771Z,14.40
2023-10-19T06:41:35.805Z,14.70
2023-10-19T06:42:35.672Z,14.30
2023-10-19T06:43:35.733Z,13.10
2023-10-19T06:44:35.683Z,15.40
2023-10-19T06:45:35.671Z,13.10
2023-10-19T06:46:35.722Z,13.80
2023-10-19T06:47:35.697Z,12.60
2023-10-19T06:48:35.606Z,14.00
2023-10-19T06:49:36.082Z,14.20
2023-10-19T06:50:35.585Z,13.70
2023-10-19T06:51:35.581Z,14.20
2023-10-19T06:52:35.610Z,13.80
2023-10-19T06:53:35.556Z,13.90
2023-10-19T06:54:35.580Z,13.70
2023-10-19T06:55:35.541Z,13.90
2023-10-19T06:56:35.547Z,12.70
2023-10-19T06:57:35.536Z,13.80
2023-10-19T06:58:35.804Z,13.70
2023-10-19T06:59:35.492Z,13.10
2023-10-19T07:00:35.524Z,12.60
2023-10-19T07:01:35.556Z,12.90
2023-10-19T07:02:35.626Z,13.20
2023-10-19T07:03:35.468Z,13.60
2023-10-19T07:04:35.536Z,11.20
2023-10-19T07:05:35.430Z,12.60
2023-10-19T07:06:35.818Z,13.00
2023-10-19T07:07:35.472Z,13.60
2023-10-19T07:08:35.402Z,14.00
2023-10-19T07:09:35.366Z,12.00
2023-10-19T07:10:35.413Z,12.80
2023-10-19T07:11:35.429Z,12.30
2023-10-19T07:12:35.350Z,11.60
2023-10-19T07:13:35.539Z,11.00
2023-10-19T07:14:35.319Z,12.10
2023-10-19T07:15:35.308Z,12.90
2023-10-19T07:16:35.424Z,10.70
2023-10-19T07:17:35.362Z,11.40
2023-10-19T07:18:35.294Z,11.40
2023-10-19T07:19:35.292Z,11.50
2023-10-19T07:20:35.250Z,11.20
2023-10-19T07:21:35.230Z,11.10
2023-10-19T07:22:35.319Z,11.40
2023-10-19T07:23:35.423Z,10.30
2023-10-19T07:24:35.185Z,11.70
2023-10-19T07:25:35.325Z,10.80
2023-10-19T07:26:35.171Z,11.00
2023-10-19T07:27:38.402Z,11.40
2023-10-19T07:28:37.751Z,10.40
2023-10-19T07:29:35.474Z,11.20
2023-10-19T07:30:35.137Z,10.50
2023-10-19T07:31:35.253Z,10.50
2023-10-19T07:32:35.162Z,11.40
2023-10-19T07:33:35.173Z,11.00
2023-10-19T07:34:35.305Z,10.30
2023-10-19T07:35:36.920Z,11.70
2023-10-19T07:36:35.144Z,10.80
2023-10-19T07:37:35.097Z,11.20
2023-10-19T07:38:35.046Z,10.80
2023-10-19T07:39:35.096Z,10.40
2023-10-19T07:40:35.027Z,10.50
2023-10-19T07:41:35.241Z,9.50
2023-10-19T07:42:35.013Z,9.90
2023-10-19T07:43:35.023Z,10.80
2023-10-19T07:44:35.047Z,10.40
2023-10-19T07:45:35.013Z,11.00
2023-10-19T07:46:35.012Z,9.80
2023-10-19T07:47:35.034Z,11.20
2023-10-19T07:48:34.930Z,11.30
2023-10-19T07:49:35.081Z,10.40
2023-10-19T07:50:35.009Z,11.40
2023-10-19T07:51:35.692Z,10.90
2023-10-19T07:52:34.946Z,10.60
2023-10-19T07:53:34.856Z,10.80
2023-10-19T07:54:34.857Z,11.40
2023-10-19T07:55:34.879Z,10.70
2023-10-19T07:56:35.586Z,11.70
2023-10-19T07:57:35.037Z,10.70
2023-10-19T07:58:34.828Z,11.40
2023-10-19T07:59:34.803Z,10.70
2023-10-19T08:00:34.867Z,10.50
2023-10-19T08:01:34.855Z,10.90
2023-10-19T08:02:34.801Z,10.60
2023-10-19T08:03:34.822Z,10.40
2023-10-19T08:04:35.042Z,12.40
2023-10-19T08:05:35.073Z,10.50
2023-10-19T08:06:34.833Z,10.20
2023-10-19T08:07:34.743Z,10.80
2023-10-19T08:08:34.721Z,10.40
2023-10-19T08:09:34.681Z,11.10
2023-10-19T08:10:34.705Z,9.80
2023-10-19T08:11:34.653Z,10.80
2023-10-19T08:12:34.660Z,9.90
2023-10-19T08:13:34.698Z,11.10
2023-10-19T08:14:34.627Z,10.70
2023-10-19T08:15:34.647Z,10.60
2023-10-19T08:16:34.654Z,11.00
2023-10-19T08:17:34.655Z,10.20
2023-10-19T08:18:34.566Z,10.80
2023-10-19T08:19:34.601Z,10.50
2023-10-19T08:20:34.557Z,10.70
2023-10-19T08:21:34.823Z,10.40
2023-10-19T08:22:34.530Z,10.10
2023-10-19T08:23:34.503Z,10.90
2023-10-19T08:24:34.499Z,10.40
2023-10-19T08:25:48.639Z,10.80
2023-10-19T08:26:35.546Z,10.00
2023-10-19T08:27:34.483Z,10.20
2023-10-19T08:28:34.490Z,9.80
2023-10-19T08:29:34.444Z,10.70
2023-10-19T08:30:34.449Z,10.60
2023-10-19T08:31:34.520Z,9.90
2023-10-19T08:32:34.558Z,10.40
2023-10-19T08:33:34.423Z,10.20
2023-10-19T08:34:34.605Z,10.90
2023-10-19T08:35:34.406Z,10.50
2023-10-19T08:36:34.376Z,10.30
2023-10-19T08:37:34.392Z,10.70
2023-10-19T08:38:34.402Z,11.40
2023-10-19T08:39:34.364Z,10.20
2023-10-19T08:40:34.343Z,10.20
2023-10-19T08:41:34.391Z,10.40
2023-10-19T08:42:34.352Z,10.60
2023-10-19T08:43:34.320Z,11.80
2023-10-19T08:44:34.433Z,10.50
2023-10-19T08:45:34.269Z,10.90
2023-10-19T08:46:34.292Z,10.10
2023-10-19T08:47:34.313Z,10.20
2023-10-19T08:48:34.278Z,10.30
2023-10-19T08:49:34.237Z,10.20
2023-10-19T08:50:34.200Z,9.60
2023-10-19T08:51:34.191Z,9.80
2023-10-19T08:52:37.189Z,11.10
2023-10-19T08:53:34.166Z,9.90
2023-10-19T08:54:34.222Z,9.80
2023-10-19T08:55:48.742Z,9.90
2023-10-19T08:56:35.138Z,9.60
2023-10-19T08:57:34.130Z,10.70
2023-10-19T08:58:34.118Z,10.80
2023-10-19T08:59:34.106Z,10.40
2023-10-19T09:00:34.115Z,11.30
2023-10-19T09:01:34.175Z,10.10
2023-10-19T09:02:34.116Z,9.70
2023-10-19T09:03:34.150Z,10.70
2023-10-19T09:04:34.342Z,11.20
2023-10-19T09:05:34.159Z,9.30
2023-10-19T09:06:34.085Z,9.80
2023-10-19T09:07:34.036Z,10.10
2023-10-19T09:08:34.003Z,9.80
2023-10-19T09:09:34.022Z,10.20
2023-10-19T09:10:34.008Z,9.80
2023-10-19T09:11:33.966Z,10.30
2023-10-19T09:12:33.964Z,9.20
2023-10-19T09:13:33.972Z,9.60
2023-10-19T09:14:33.957Z,9.10
2023-10-19T09:15:33.950Z,9.20
2023-10-19T09:16:33.946Z,10.80
2023-10-19T09:17:33.946Z,10.70
2023-10-19T09:18:33.891Z,10.90
2023-10-19T09:19:33.901Z,11.30
2023-10-19T09:20:33.869Z,10.60
2023-10-19T09:21:33.854Z,10.50
2023-10-19T09:22:33.972Z,10.10
2023-10-19T09:23:33.923Z,10.20
2023-10-19T09:24:33.969Z,10.10
2023-10-19T09:25:33.876Z,9.70
2023-10-19T09:26:33.819Z,9.70
2023-10-19T09:27:33.778Z,10.10
2023-10-19T09:28:33.851Z,9.10
2023-10-19T09:29:33.773Z,10.20
2023-10-19T09:30:33.756Z,9.60
2023-10-19T09:31:33.791Z,9.90
2023-10-19T09:32:33.755Z,10.20
2023-10-19T09:33:33.709Z,9.90
2023-10-19T09:34:34.112Z,10.00
2023-10-19T09:35:33.713Z,9.90
2023-10-19T09:36:33.659Z,9.70
2023-10-19T09:37:33.738Z,10.30
2023-10-19T09:38:33.654Z,9.70
2023-10-19T09:39:33.629Z,9.40
2023-10-19T09:40:33.673Z,9.30
2023-10-19T09:41:33.643Z,9.40
2023-10-19T09:42:33.611Z,9.60
2023-10-19T09:43:33.645Z,10.40
2023-10-19T09:44:33.757Z,9.90
2023-10-19T09:45:33.575Z,9.80
2023-10-19T09:46:33.737Z,10.20
2023-10-19T09:47:33.722Z,10.00
2023-10-19T09:48:33.582Z,9.90
2023-10-19T09:49:33.571Z,10.20
2023-10-19T09:50:33.507Z,10.00
2023-10-19T09:51:33.496Z,10.60
2023-10-19T09:52:33.525Z,10.80
2023-10-19T09:53:33.474Z,10.50
2023-10-19T09:54:33.596Z,10.50
2023-10-19T09:55:33.483Z,11.30
2023-10-19T09:56:33.489Z,10.60
2023-10-19T09:57:33.440Z,10.90
2023-10-19T09:58:33.463Z,10.40
2023-10-19T09:59:33.431Z,11.10
2023-10-19T10:00:33.423Z,10.40
2023-10-19T10:01:33.428Z,11.30
2023-10-19T10:02:33.467Z,9.90
2023-10-19T10:03:33.562Z,10.30
2023-10-19T10:04:33.767Z,9.90
2023-10-19T10:05:33.383Z,10.60
2023-10-19T10:06:33.360Z,10.10
2023-10-19T10:07:41.651Z,10.30
2023-10-19T10:08:34.361Z,10.40
2023-10-19T10:09:33.663Z,10.20
2023-10-19T10:10:33.534Z,11.10
2023-10-19T10:11:33.446Z,10.70
2023-10-19T10:12:33.271Z,10.10
2023-10-19T10:13:33.395Z,10.00
2023-10-19T10:14:33.576Z,9.90
2023-10-19T10:15:33.255Z,11.00
2023-10-19T10:16:33.340Z,11.30
2023-10-19T10:17:33.362Z,10.90
2023-10-19T10:18:33.254Z,10.90
2023-10-19T10:19:33.260Z,10.50
2023-10-19T10:20:33.244Z,11.00
2023-10-19T10:21:33.289Z,11.10
2023-10-19T10:22:33.214Z,11.70
2023-10-19T10:23:33.165Z,10.40
2023-10-19T10:24:33.378Z,11.00
2023-10-19T10:25:33.243Z,10.90
2023-10-19T10:26:33.126Z,10.30
2023-10-19T10:27:33.128Z,10.60
2023-10-19T10:28:33.174Z,10.50
2023-10-19T10:29:33.109Z,11.40
2023-10-19T10:30:33.070Z,10.50
2023-10-19T10:31:33.142Z,11.40
2023-10-19T10:32:33.065Z,10.70
2023-10-19T10:33:33.116Z,10.90
2023-10-19T10:34:33.260Z,10.30
2023-10-19T10:35:33.005Z,11.20
2023-10-19T10:36:33.041Z,10.40
2023-10-19T10:37:32.991Z,11.40
2023-10-19T10:38:33.012Z,10.70
2023-10-19T10:39:32.962Z,10.40
2023-10-19T10:40:33.006Z,10.80
2023-10-19T10:41:32.967Z,10.70
2023-10-19T10:42:32.947Z,9.70
2023-10-19T10:43:32.916Z,10.60
2023-10-19T10:44:33.044Z,11.90
2023-10-19T10:45:32.881Z,10.60
2023-10-19T10:46:33.049Z,11.00
2023-10-19T10:47:32.913Z,11.50
2023-10-19T10:48:32.885Z,11.40
2023-10-19T10:49:32.868Z,10.70
2023-10-19T10:50:32.873Z,11.20
2023-10-19T10:51:32.814Z,10.70
2023-10-19T10:52:32.896Z,10.90
2023-10-19T10:53:32.786Z,11.70
2023-10-19T10:54:33.014Z,11.20
2023-10-19T10:55:32.896Z,10.50
2023-10-19T10:56:32.770Z,10.60
2023-10-19T10:57:32.813Z,10.20
2023-10-19T10:58:32.766Z,11.20
2023-10-19T10:59:32.743Z,11.50
2023-10-19T11:00:32.781Z,11.40
2023-10-19T11:01:32.725Z,10.20
2023-10-19T11:02:32.731Z,10.80
2023-10-19T11:03:32.679Z,11.20
2023-10-19T11:04:32.940Z,10.50
2023-10-19T11:05:32.827Z,10.90
2023-10-19T11:06:32.663Z,10.80
2023-10-19T11:07:32.664Z,11.80
2023-10-19T11:08:32.642Z,11.80
2023-10-19T11:09:32.617Z,10.70
2023-10-19T11:10:32.679Z,11.20
2023-10-19T11:11:32.607Z,11.60
2023-10-19T11:12:32.589Z,11.20
2023-10-19T11:13:32.588Z,10.90
2023-10-19T11:14:32.759Z,11.90
2023-10-19T11:15:32.556Z,11.70
2023-10-19T11:16:32.706Z,10.80
2023-10-19T11:17:32.627Z,11.40
2023-10-19T11:18:32.542Z,11.30
2023-10-19T11:19:32.546Z,11.40
2023-10-19T11:20:32.536Z,11.40
2023-10-19T11:21:32.491Z,10.80
2023-10-19T11:22:32.590Z,11.10
2023-10-19T11:23:32.514Z,10.90
2023-10-19T11:24:32.605Z,10.80
2023-10-19T11:25:32.478Z,10.50
2023-10-19T11:26:32.428Z,10.10
2023-10-19T11:27:32.413Z,10.50
2023-10-19T11:28:32.475Z,10.80
2023-10-19T11:29:33.211Z,10.10
2023-10-19T11:30:32.941Z,11.10
2023-10-19T11:31:32.596Z,10.40
2023-10-19T11:32:32.449Z,10.30
2023-10-19T11:33:32.387Z,10.30
2023-10-19T11:34:32.724Z,10.10
2023-10-19T11:35:32.590Z,10.10
2023-10-19T11:36:32.315Z,10.30
2023-10-19T11:37:32.407Z,10.10
2023-10-19T11:38:33.411Z,9.60
2023-10-19T11:39:32.289Z,10.70
2023-10-19T11:40:32.320Z,10.30
2023-10-19T11:41:32.257Z,10.50
2023-10-19T11:42:32.251Z,9.60
2023-10-19T11:43:32.266Z,10.10
2023-10-19T11:44:32.510Z,10.30
2023-10-19T11:45:32.249Z,9.90
2023-10-19T11:46:32.300Z,10.70
2023-10-19T11:47:32.281Z,10.50
2023-10-19T11:48:32.208Z,10.70
2023-10-19T11:49:32.217Z,10.80
2023-10-19T11:50:32.161Z,10.50
2023-10-19T11:51:32.198Z,10.90
2023-10-19T11:52:32.221Z,10.20
2023-10-19T11:53:32.141Z,11.20
2023-10-19T11:54:32.290Z,10.50
2023-10-19T11:55:32.154Z,9.50
2023-10-19T11:56:32.100Z,11.00
2023-10-19T11:57:32.335Z,11.10
2023-10-19T11:58:32.321Z,11.30
2023-10-19T11:59:32.107Z,11.70
2023-10-19T12:00:32.124Z,11.30
2023-10-19T12:01:32.179Z,10.60
2023-10-19T12:02:32.305Z,11.50
2023-10-19T12:03:32.092Z,11.40
2023-10-19T12:04:32.266Z,10.80
2023-10-19T12:05:32.045Z,12.20
2023-10-19T12:06:32.054Z,10.80
2023-10-19T12:07:32.118Z,11.20
2023-10-19T12:08:31.951Z,11.10
2023-10-19T12:09:32.014Z,11.80
2023-10-19T12:10:31.933Z,11.20
2023-10-19T12:11:31.984Z,11.90
2023-10-19T12:12:32.992Z,11.50
2023-10-19T12:13:31.886Z,11.40
2023-10-19T12:14:32.088Z,12.00
2023-10-19T12:15:31.916Z,11.50
2023-10-19T12:16:31.902Z,11.70
2023-10-19T12:17:32.011Z,11.20
2023-10-19T12:18:31.874Z,12.00
2023-10-19T12:19:31.899Z,12.00
2023-10-19T12:20:31.874Z,12.60
2023-10-19T12:21:31.857Z,12.30
2023-10-19T12:22:31.814Z,11.90
2023-10-19T12:23:31.776Z,11.40
2023-10-19T12:24:32.099Z,10.30
2023-10-19T12:25:39.725Z,10.80
2023-10-19T12:26:32.797Z,11.90
2023-10-19T12:27:31.728Z,12.20
2023-10-19T12:28:31.719Z,11.80
2023-10-19T12:29:31.709Z,11.50
2023-10-19T12:30:31.839Z,12.10
2023-10-19T12:31:31.805Z,12.50
2023-10-19T12:32:31.755Z,11.90
2023-10-19T12:33:31.711Z,11.90
2023-10-19T12:34:32.106Z,12.00
2023-10-19T12:35:31.633Z,12.10
2023-10-19T12:36:31.665Z,12.10
2023-10-19T12:37:31.636Z,12.20
2023-10-19T12:38:31.611Z,11.20
2023-10-19T12:39:31.732Z,11.90
2023-10-19T12:40:31.586Z,11.50
2023-10-19T12:41:31.566Z,10.60
2023-10-19T12:42:31.562Z,11.60
2023-10-19T12:43:31.569Z,12.10
2023-10-19T12:44:31.758Z,10.80
2023-10-19T12:45:31.577Z,12.40
2023-10-19T12:46:31.542Z,11.90
2023-10-19T12:47:31.560Z,12.00
2023-10-19T12:48:31.497Z,12.00
2023-10-19T12:49:31.495Z,11.80
2023-10-19T12:50:31.472Z,11.90
2023-10-19T12:51:31.448Z,10.80
2023-10-19T12:52:31.445Z,11.80
2023-10-19T12:53:31.437Z,11.10
2023-10-19T12:54:31.633Z,12.00
2023-10-19T12:55:31.640Z,11.50
2023-10-19T12:56:31.394Z,10.60
2023-10-19T12:57:31.370Z,11.40
2023-10-19T12:58:31.362Z,11.50
2023-10-19T12:59:31.556Z,11.90
2023-10-19T13:00:34.051Z,11.90
2023-10-19T13:01:31.664Z,10.80
2023-10-19T13:02:31.449Z,11.90
2023-10-19T13:03:31.855Z,11.00